sensor_id;sensor_type;location;lat;lon;timestamp;pressure;altitude;pressure_sealevel;temperature;humidity
47104;BME280;32853;52.164;5.400;2022-12-07T00:01:44;101731.88;;;6.29;100.00
47104;BME280;32853;52.164;5.400;2022-12-07T00:04:12;101664.66;;;5.86;100.00
47104;BME280;32853;52.164;5.400;2022-12-07T00:06:41;101655.94;;;5.98;100.00
47104;BME280;32853;52.164;5.400;2022-12-07T00:16:04;101687.88;;;6.10;100.00
47104;BME280;32853;52.164;5.400;2022-12-07T00:18:31;101715.50;;;6.18;100.00
47104;BME280;32853;52.164;5.400;2022-12-07T00:21:28;101750.81;;;6.45;100.00
47104;BME280;32853;52.164;5.400;2022-12-07T00:24:11;101713.69;;;6.29;100.00
47104;BME280;32853;52.164;5.400;2022-12-07T00:29:28;101742.19;;;6.39;100.00
47104;BME280;32853;52.164;5.400;2022-12-07T00:31:54;101724.06;;;6.33;100.00
47104;BME280;32853;52.164;5.400;2022-12-07T00:34:20;101705.09;;;6.24;100.00
47104;BME280;32853;52.164;5.400;2022-12-07T00:36:46;101683.59;;;6.05;100.00
47104;BME280;32853;52.164;5.400;2022-12-07T00:39:12;101499.25;;;4.96;100.00
47104;BME280;32853;52.164;5.400;2022-12-07T00:41:38;101656.78;;;5.98;100.00
47104;BME280;32853;52.164;5.400;2022-12-07T00:44:03;101668.00;;;6.06;100.00
47104;BME280;32853;52.164;5.400;2022-12-07T00:46:29;101683.59;;;6.05;100.00
47104;BME280;32853;52.164;5.400;2022-12-07T00:48:58;101743.97;;;6.34;100.00
47104;BME280;32853;52.164;5.400;2022-12-07T00:51:27;101728.38;;;6.31;100.00
47104;BME280;32853;52.164;5.400;2022-12-07T00:53:53;101600.06;;;5.46;100.00
47104;BME280;32853;52.164;5.400;2022-12-07T00:56:21;101619.91;;;5.55;100.00
47104;BME280;32853;52.164;5.400;2022-12-07T00:59:02;101503.63;;;4.88;100.00
47104;BME280;32853;52.164;5.400;2022-12-07T01:01:31;101672.50;;;5.80;100.00
47104;BME280;32853;52.164;5.400;2022-12-07T01:04:08;101727.59;;;6.25;100.00
47104;BME280;32853;52.164;5.400;2022-12-07T01:06:48;101695.69;;;6.10;100.00
47104;BME280;32853;52.164;5.400;2022-12-07T01:09:22;101705.22;;;6.10;100.00
47104;BME280;32853;52.164;5.400;2022-12-07T01:11:47;101738.00;;;6.20;100.00
47104;BME280;32853;52.164;5.400;2022-12-07T01:14:22;101687.06;;;6.02;100.00
47104;BME280;32853;52.164;5.400;2022-12-07T01:16:51;101663.00;;;5.73;100.00
47104;BME280;32853;52.164;5.400;2022-12-07T01:19:16;101750.19;;;6.14;100.00
47104;BME280;32853;52.164;5.400;2022-12-07T01:21:42;101672.53;;;5.74;100.00
47104;BME280;32853;52.164;5.400;2022-12-07T01:24:10;101682.91;;;5.77;100.00
47104;BME280;32853;52.164;5.400;2022-12-07T01:26:38;101609.72;;;5.23;100.00
47104;BME280;32853;52.164;5.400;2022-12-07T01:29:10;101597.59;;;5.27;100.00
47104;BME280;32853;52.164;5.400;2022-12-07T01:31:35;101747.59;;;6.12;100.00
47104;BME280;32853;52.164;5.400;2022-12-07T01:34:09;101665.63;;;5.70;100.00
47104;BME280;32853;52.164;5.400;2022-12-07T01:36:35;101687.13;;;5.87;100.00
47104;BME280;32853;52.164;5.400;2022-12-07T01:39:09;101730.28;;;6.14;100.00
47104;BME280;32853;52.164;5.400;2022-12-07T01:41:39;101698.41;;;5.83;100.00
47104;BME280;32853;52.164;5.400;2022-12-07T01:46:49;101733.00;;;5.94;100.00
47104;BME280;32853;52.164;5.400;2022-12-07T01:49:53;101737.28;;;5.98;100.00
47104;BME280;32853;52.164;5.400;2022-12-07T01:52:33;101693.41;;;5.57;100.00
47104;BME280;32853;52.164;5.400;2022-12-07T01:55:16;101737.34;;;5.91;100.00
47104;BME280;32853;52.164;5.400;2022-12-07T01:57:52;101730.41;;;5.88;100.00
47104;BME280;32853;52.164;5.400;2022-12-07T02:00:19;101735.59;;;5.90;100.00
47104;BME280;32853;52.164;5.400;2022-12-07T02:03:02;101675.31;;;5.43;100.00
47104;BME280;32853;52.164;5.400;2022-12-07T02:05:48;101679.59;;;5.50;100.00
47104;BME280;32853;52.164;5.400;2022-12-07T02:08:14;101660.72;;;5.19;100.00
47104;BME280;32853;52.164;5.400;2022-12-07T02:10:40;101603.84;;;4.84;100.00
47104;BME280;32853;52.164;5.400;2022-12-07T02:13:30;101727.91;;;5.73;100.00
47104;BME280;32853;52.164;5.400;2022-12-07T02:28:05;101720.91;;;5.82;100.00
47104;BME280;32853;52.164;5.400;2022-12-07T02:30:35;101719.22;;;5.80;100.00
47104;BME280;32853;52.164;5.400;2022-12-07T02:33:16;101720.06;;;5.82;100.00
47104;BME280;32853;52.164;5.400;2022-12-07T02:36:04;101659.72;;;5.46;100.00
47104;BME280;32853;52.164;5.400;2022-12-07T02:44:00;101608.88;;;5.18;100.00
47104;BME280;32853;52.164;5.400;2022-12-07T02:46:31;101571.78;;;5.04;100.00
47104;BME280;32853;52.164;5.400;2022-12-07T02:48:58;101706.19;;;5.88;100.00
47104;BME280;32853;52.164;5.400;2022-12-07T02:51:25;101658.78;;;5.58;100.00
47104;BME280;32853;52.164;5.400;2022-12-07T02:53:51;101718.28;;;5.93;100.00
47104;BME280;32853;52.164;5.400;2022-12-07T03:05:13;101719.16;;;5.92;100.00
47104;BME280;32853;52.164;5.400;2022-12-07T03:13:12;101701.84;;;5.93;100.00
47104;BME280;32853;52.164;5.400;2022-12-07T03:18:48;101627.78;;;5.38;100.00
47104;BME280;32853;52.164;5.400;2022-12-07T03:21:18;101598.50;;;5.21;100.00
47104;BME280;32853;52.164;5.400;2022-12-07T03:23:48;101719.16;;;5.94;100.00
47104;BME280;32853;52.164;5.400;2022-12-07T03:26:16;101705.22;;;6.05;100.00
47104;BME280;32853;52.164;5.400;2022-12-07T03:28:47;101700.03;;;6.05;100.00
47104;BME280;32853;52.164;5.400;2022-12-07T03:31:22;101629.38;;;5.59;100.00
47104;BME280;32853;52.164;5.400;2022-12-07T03:34:10;101711.34;;;6.00;100.00
47104;BME280;32853;52.164;5.400;2022-12-07T03:36:44;101706.94;;;6.06;100.00
47104;BME280;32853;52.164;5.400;2022-12-07T03:39:29;101700.06;;;6.02;100.00
47104;BME280;32853;52.164;5.400;2022-12-07T03:41:59;101690.56;;;6.01;100.00
47104;BME280;32853;52.164;5.400;2022-12-07T03:44:25;101617.38;;;5.41;100.00
47104;BME280;32853;52.164;5.400;2022-12-07T03:47:16;101696.63;;;5.97;100.00
47104;BME280;32853;52.164;5.400;2022-12-07T03:50:17;101693.13;;;6.04;100.00
47104;BME280;32853;52.164;5.400;2022-12-07T03:53:03;101657.75;;;5.82;100.00
47104;BME280;32853;52.164;5.400;2022-12-07T03:55:32;101646.56;;;5.77;100.00
47104;BME280;32853;52.164;5.400;2022-12-07T03:58:03;101702.66;;;6.01;100.00
47104;BME280;32853;52.164;5.400;2022-12-07T04:00:29;101628.53;;;5.59;100.00
47104;BME280;32853;52.164;5.400;2022-12-07T04:02:54;101572.53;;;5.24;100.00
47104;BME280;32853;52.164;5.400;2022-12-07T04:05:20;101569.09;;;5.19;100.00
47104;BME280;32853;52.164;5.400;2022-12-07T04:07:46;101661.19;;;5.92;100.00
47104;BME280;32853;52.164;5.400;2022-12-07T04:10:11;101681.09;;;5.90;100.00
47104;BME280;32853;52.164;5.400;2022-12-07T04:12:56;101678.34;;;6.08;100.00
47104;BME280;32853;52.164;5.400;2022-12-07T04:15:21;101679.22;;;6.11;100.00
47104;BME280;32853;52.164;5.400;2022-12-07T04:17:48;101655.03;;;6.03;100.00
47104;BME280;32853;52.164;5.400;2022-12-07T04:20:14;101671.44;;;6.11;100.00
47104;BME280;32853;52.164;5.400;2022-12-07T04:22:44;101620.63;;;5.74;100.00
47104;BME280;32853;52.164;5.400;2022-12-07T04:25:10;101632.69;;;5.81;100.00
47104;BME280;32853;52.164;5.400;2022-12-07T04:27:45;101679.22;;;6.11;100.00
47104;BME280;32853;52.164;5.400;2022-12-07T04:30:19;101656.81;;;5.97;100.00
47104;BME280;32853;52.164;5.400;2022-12-07T04:32:45;101661.97;;;6.03;100.00
47104;BME280;32853;52.164;5.400;2022-12-07T04:35:16;101700.78;;;6.20;100.00
47104;BME280;32853;52.164;5.400;2022-12-07T04:37:47;101661.94;;;6.06;100.00
47104;BME280;32853;52.164;5.400;2022-12-07T04:40:13;101635.22;;;5.89;100.00
47104;BME280;32853;52.164;5.400;2022-12-07T04:42:39;101457.91;;;4.78;100.00
47104;BME280;32853;52.164;5.400;2022-12-07T04:45:05;101599.94;;;5.62;100.00
47104;BME280;32853;52.164;5.400;2022-12-07T04:47:30;101622.41;;;5.63;100.00
47104;BME280;32853;52.164;5.400;2022-12-07T04:49:56;101677.56;;;6.03;100.00
47104;BME280;32853;52.164;5.400;2022-12-07T04:52:30;101542.22;;;5.34;100.00
47104;BME280;32853;52.164;5.400;2022-12-07T04:54:56;101635.28;;;5.81;100.00
47104;BME280;32853;52.164;5.400;2022-12-07T04:57:22;101477.69;;;4.86;100.00
47104;BME280;32853;52.164;5.400;2022-12-07T04:59:47;101550.00;;;5.29;100.00
47104;BME280;32853;52.164;5.400;2022-12-07T05:02:13;101482.91;;;4.83;100.00
47104;BME280;32853;52.164;5.400;2022-12-07T05:04:38;101568.13;;;5.37;100.00
47104;BME280;32853;52.164;5.400;2022-12-07T05:07:03;101678.41;;;6.03;100.00
47104;BME280;32853;52.164;5.400;2022-12-07T05:09:29;101662.00;;;6.00;100.00
47104;BME280;32853;52.164;5.400;2022-12-07T05:11:54;101445.88;;;4.68;100.00
47104;BME280;32853;52.164;5.400;2022-12-07T05:14:20;101590.50;;;5.51;100.00
47104;BME280;32853;52.164;5.400;2022-12-07T05:16:47;101673.25;;;5.99;100.00
47104;BME280;32853;52.164;5.400;2022-12-07T05:19:19;101435.53;;;4.61;100.00
47104;BME280;32853;52.164;5.400;2022-12-07T05:21:44;101655.97;;;5.95;100.00
47104;BME280;32853;52.164;5.400;2022-12-07T05:24:11;101462.28;;;4.68;100.00
47104;BME280;32853;52.164;5.400;2022-12-07T05:26:47;101600.00;;;5.54;100.00
47104;BME280;32853;52.164;5.400;2022-12-07T05:29:14;101667.25;;;5.88;100.00
47104;BME280;32853;52.164;5.400;2022-12-07T05:31:41;101590.59;;;5.38;100.00
47104;BME280;32853;52.164;5.400;2022-12-07T05:34:14;101662.91;;;5.90;100.00
47104;BME280;32853;52.164;5.400;2022-12-07T05:36:41;101662.97;;;5.80;100.00
47104;BME280;32853;52.164;5.400;2022-12-07T05:39:09;101476.06;;;4.72;100.00
47104;BME280;32853;52.164;5.400;2022-12-07T05:41:42;101589.75;;;5.37;100.00
47104;BME280;32853;52.164;5.400;2022-12-07T05:44:34;101687.16;;;5.84;100.00
47104;BME280;32853;52.164;5.400;2022-12-07T05:47:10;101642.31;;;5.67;100.00
47104;BME280;32853;52.164;5.400;2022-12-07T05:49:37;101674.19;;;5.84;100.00
47104;BME280;32853;52.164;5.400;2022-12-07T05:52:11;101683.69;;;5.88;100.00
47104;BME280;32853;52.164;5.400;2022-12-07T05:54:36;101545.03;;;4.95;100.00
47104;BME280;32853;52.164;5.400;2022-12-07T05:57:01;101549.28;;;5.09;100.00
47104;BME280;32853;52.164;5.400;2022-12-07T05:59:27;101681.16;;;5.79;100.00
47104;BME280;32853;52.164;5.400;2022-12-07T06:02:04;101693.28;;;5.78;100.00
47104;BME280;32853;52.164;5.400;2022-12-07T06:04:57;101662.06;;;5.84;100.00
47104;BME280;32853;52.164;5.400;2022-12-07T06:07:24;101679.44;;;5.78;100.00
47104;BME280;32853;52.164;5.400;2022-12-07T06:09:50;101673.38;;;5.76;100.00
47104;BME280;32853;52.164;5.400;2022-12-07T06:12:15;101653.56;;;5.67;100.00
47104;BME280;32853;52.164;5.400;2022-12-07T06:14:59;101650.13;;;5.61;100.00
47104;BME280;32853;52.164;5.400;2022-12-07T06:17:24;101669.03;;;5.81;100.00
47104;BME280;32853;52.164;5.400;2022-12-07T06:19:50;101632.00;;;5.56;100.00
47104;BME280;32853;52.164;5.400;2022-12-07T06:22:16;101525.19;;;4.87;100.00
47104;BME280;32853;52.164;5.400;2022-12-07T06:24:42;101535.59;;;4.84;100.00
47104;BME280;32853;52.164;5.400;2022-12-07T06:27:07;101545.06;;;4.94;100.00
47104;BME280;32853;52.164;5.400;2022-12-07T06:29:33;101639.81;;;5.54;100.00
47104;BME280;32853;52.164;5.400;2022-12-07T06:32:03;101498.44;;;4.83;100.00
47104;BME280;32853;52.164;5.400;2022-12-07T06:34:32;101654.34;;;5.74;100.00
47104;BME280;32853;52.164;5.400;2022-12-07T06:36:59;101668.13;;;5.85;100.00
47104;BME280;32853;52.164;5.400;2022-12-07T06:39:26;101638.00;;;5.63;100.00
47104;BME280;32853;52.164;5.400;2022-12-07T06:41:52;101638.91;;;5.59;100.00
47104;BME280;32853;52.164;5.400;2022-12-07T06:44:24;101662.13;;;5.77;100.00
47104;BME280;32853;52.164;5.400;2022-12-07T06:46:50;101675.94;;;5.80;100.00
47104;BME280;32853;52.164;5.400;2022-12-07T06:49:16;101625.94;;;5.56;100.00
47104;BME280;32853;52.164;5.400;2022-12-07T06:51:42;101559.72;;;5.00;100.00
47104;BME280;32853;52.164;5.400;2022-12-07T06:54:11;101617.41;;;5.37;100.00
47104;BME280;32853;52.164;5.400;2022-12-07T06:56:39;101688.03;;;5.83;100.00
47104;BME280;32853;52.164;5.400;2022-12-07T06:59:06;101669.00;;;5.84;100.00
47104;BME280;32853;52.164;5.400;2022-12-07T07:01:35;101587.22;;;5.20;100.00
47104;BME280;32853;52.164;5.400;2022-12-07T07:04:01;101382.38;;;3.87;100.00
47104;BME280;32853;52.164;5.400;2022-12-07T07:06:32;101524.34;;;4.85;100.00
47104;BME280;32853;52.164;5.400;2022-12-07T07:08:58;101547.69;;;4.89;100.00
47104;BME280;32853;52.164;5.400;2022-12-07T07:11:24;101685.53;;;5.71;100.00
47104;BME280;32853;52.164;5.400;2022-12-07T07:13:49;101562.31;;;4.95;100.00
47104;BME280;32853;52.164;5.400;2022-12-07T07:16:14;101496.00;;;4.54;100.00
47104;BME280;32853;52.164;5.400;2022-12-07T07:18:40;101688.13;;;5.69;100.00
47104;BME280;32853;52.164;5.400;2022-12-07T07:21:05;101512.38;;;4.67;100.00
47104;BME280;32853;52.164;5.400;2022-12-07T07:23:39;101669.13;;;5.63;100.00
47104;BME280;32853;52.164;5.400;2022-12-07T07:26:04;101535.63;;;4.81;100.00
47104;BME280;32853;52.164;5.400;2022-12-07T07:28:30;101680.44;;;5.57;100.00
47104;BME280;32853;52.164;5.400;2022-12-07T07:30:55;101676.03;;;5.64;100.00
47104;BME280;32853;52.164;5.400;2022-12-07T07:33:25;101594.19;;;5.15;100.00
47104;BME280;32853;52.164;5.400;2022-12-07T07:35:50;101407.34;;;4.00;100.00
47104;BME280;32853;52.164;5.400;2022-12-07T07:38:15;101678.69;;;5.58;100.00
47104;BME280;32853;52.164;5.400;2022-12-07T07:40:41;101681.31;;;5.51;100.00
47104;BME280;32853;52.164;5.400;2022-12-07T07:43:06;101635.66;;;5.18;100.00
47104;BME280;32853;52.164;5.400;2022-12-07T07:45:31;101551.16;;;4.81;100.00
47104;BME280;32853;52.164;5.400;2022-12-07T07:47:57;101673.53;;;5.48;100.00
47104;BME280;32853;52.164;5.400;2022-12-07T07:50:22;101655.47;;;5.36;100.00
47104;BME280;32853;52.164;5.400;2022-12-07T07:52:48;101611.53;;;5.06;100.00
47104;BME280;32853;52.164;5.400;2022-12-07T07:55:27;101600.28;;;5.07;100.00
47104;BME280;32853;52.164;5.400;2022-12-07T07:57:54;101653.78;;;5.20;100.00
47104;BME280;32853;52.164;5.400;2022-12-07T08:00:27;101683.94;;;5.48;100.00
47104;BME280;32853;52.164;5.400;2022-12-07T08:02:52;101689.13;;;5.48;100.00
47104;BME280;32853;52.164;5.400;2022-12-07T08:05:30;101674.41;;;5.49;100.00
47104;BME280;32853;52.164;5.400;2022-12-07T08:07:59;101720.19;;;5.59;100.00
47104;BME280;32853;52.164;5.400;2022-12-07T08:10:24;101620.09;;;5.21;100.00
47104;BME280;32853;52.164;5.400;2022-12-07T08:12:55;101683.00;;;5.59;100.00
47104;BME280;32853;52.164;5.400;2022-12-07T08:15:44;101499.53;;;4.40;100.00
47104;BME280;32853;52.164;5.400;2022-12-07T08:18:25;101563.25;;;4.83;100.00
47104;BME280;32853;52.164;5.400;2022-12-07T08:20:50;101627.06;;;5.13;100.00
47104;BME280;32853;52.164;5.400;2022-12-07T08:23:17;101671.91;;;5.34;100.00
47104;BME280;32853;52.164;5.400;2022-12-07T08:26:03;101682.19;;;5.50;100.00
47104;BME280;32853;52.164;5.400;2022-12-07T08:28:29;101692.44;;;5.72;100.00
47104;BME280;32853;52.164;5.400;2022-12-07T08:31:11;101622.63;;;5.34;100.00
47104;BME280;32853;52.164;5.400;2022-12-07T08:33:38;101697.59;;;5.75;100.00
47104;BME280;32853;52.164;5.400;2022-12-07T08:36:09;101702.75;;;5.82;100.00
47104;BME280;32853;52.164;5.400;2022-12-07T08:38:45;101662.22;;;5.63;100.00
47104;BME280;32853;52.164;5.400;2022-12-07T08:41:19;101674.25;;;5.78;100.00
47104;BME280;32853;52.164;5.400;2022-12-07T08:43:54;101660.47;;;5.68;100.00
47104;BME280;32853;52.164;5.400;2022-12-07T08:46:57;101699.22;;;5.97;100.00
47104;BME280;32853;52.164;5.400;2022-12-07T08:49:40;101688.00;;;5.92;100.00
47104;BME280;32853;52.164;5.400;2022-12-07T08:52:14;101694.84;;;6.05;100.00
47104;BME280;32853;52.164;5.400;2022-12-07T08:54:40;101594.00;;;5.47;100.00
47104;BME280;32853;52.164;5.400;2022-12-07T08:57:07;101624.16;;;5.67;100.00
47104;BME280;32853;52.164;5.400;2022-12-07T08:59:38;101700.84;;;6.12;100.00
47104;BME280;32853;52.164;5.400;2022-12-07T09:02:16;101646.50;;;5.83;100.00
47104;BME280;32853;52.164;5.400;2022-12-07T09:04:51;101664.59;;;6.00;100.00
47104;BME280;32853;52.164;5.400;2022-12-07T09:07:17;101682.66;;;6.15;100.00
47104;BME280;32853;52.164;5.400;2022-12-07T09:10:02;101688.66;;;6.23;100.00
47104;BME280;32853;52.164;5.400;2022-12-07T09:12:29;101669.69;;;6.12;100.00
47104;BME280;32853;52.164;5.400;2022-12-07T09:15:01;101692.13;;;6.19;100.00
47104;BME280;32853;52.164;5.400;2022-12-07T09:17:31;101682.59;;;6.23;100.00
47104;BME280;32853;52.164;5.400;2022-12-07T09:20:06;101691.13;;;6.37;100.00
47104;BME280;32853;52.164;5.400;2022-12-07T09:22:33;101575.78;;;5.52;100.00
47104;BME280;32853;52.164;5.400;2022-12-07T09:24:59;101691.06;;;6.43;100.00
47104;BME280;32853;52.164;5.400;2022-12-07T09:27:54;101695.28;;;6.56;100.00
47104;BME280;32853;52.164;5.400;2022-12-07T09:30:22;101692.69;;;6.53;100.00
47104;BME280;32853;52.164;5.400;2022-12-07T09:32:47;101469.63;;;5.28;100.00
47104;BME280;32853;52.164;5.400;2022-12-07T09:35:17;101683.13;;;6.58;100.00
47104;BME280;32853;52.164;5.400;2022-12-07T09:37:44;101664.31;;;6.33;100.00
47104;BME280;32853;52.164;5.400;2022-12-07T09:40:10;101633.31;;;6.15;100.00
47104;BME280;32853;52.164;5.400;2022-12-07T09:42:42;101684.03;;;6.54;100.00
47104;BME280;32853;52.164;5.400;2022-12-07T09:45:22;101570.28;;;5.96;100.00
47104;BME280;32853;52.164;5.400;2022-12-07T09:47:49;101494.50;;;5.51;100.00
47104;BME280;32853;52.164;5.400;2022-12-07T09:50:17;101603.78;;;6.25;100.00
47104;BME280;32853;52.164;5.400;2022-12-07T09:52:45;101559.09;;;5.91;100.00
47104;BME280;32853;52.164;5.400;2022-12-07T09:55:13;101652.84;;;6.54;100.00
47104;BME280;32853;52.164;5.400;2022-12-07T09:57:39;101490.09;;;5.61;100.00
47104;BME280;32853;52.164;5.400;2022-12-07T10:00:20;101698.50;;;6.80;100.00
47104;BME280;32853;52.164;5.400;2022-12-07T10:03:02;101686.28;;;6.86;100.00
47104;BME280;32853;52.164;5.400;2022-12-07T10:05:43;101606.22;;;6.39;100.00
47104;BME280;32853;52.164;5.400;2022-12-07T10:08:14;101644.88;;;6.71;100.00
47104;BME280;32853;52.164;5.400;2022-12-07T10:10:41;101685.34;;;6.93;100.00
47104;BME280;32853;52.164;5.400;2022-12-07T10:13:14;101606.84;;;6.62;100.00
47104;BME280;32853;52.164;5.400;2022-12-07T10:18:31;101669.41;;;7.19;100.00
47104;BME280;32853;52.164;5.400;2022-12-07T10:21:10;101609.00;;;6.99;100.00
47104;BME280;32853;52.164;5.400;2022-12-07T10:23:37;101454.13;;;6.14;100.00
47104;BME280;32853;52.164;5.400;2022-12-07T10:29:17;101670.09;;;7.35;100.00
47104;BME280;32853;52.164;5.400;2022-12-07T10:31:43;101578.75;;;6.92;100.00
47104;BME280;32853;52.164;5.400;2022-12-07T10:34:26;101463.69;;;6.11;100.00
47104;BME280;32853;52.164;5.400;2022-12-07T10:36:53;101676.22;;;7.31;100.00
47104;BME280;32853;52.164;5.400;2022-12-07T10:39:22;101432.63;;;6.01;100.00
47104;BME280;32853;52.164;5.400;2022-12-07T10:42:15;101525.94;;;6.87;100.00
47104;BME280;32853;52.164;5.400;2022-12-07T10:44:46;101653.00;;;7.79;100.00
47104;BME280;32853;52.164;5.400;2022-12-07T10:53:25;101644.00;;;7.97;100.00
47104;BME280;32853;52.164;5.400;2022-12-07T11:05:04;101623.84;;;8.08;100.00
47104;BME280;32853;52.164;5.400;2022-12-07T11:08:01;101630.97;;;8.00;100.00
47104;BME280;32853;52.164;5.400;2022-12-07T11:10:55;101638.31;;;8.26;100.00
47104;BME280;32853;52.164;5.400;2022-12-07T11:16:04;101576.38;;;7.92;100.00
47104;BME280;32853;52.164;5.400;2022-12-07T11:27:14;101542.03;;;7.70;100.00
47104;BME280;32853;52.164;5.400;2022-12-07T11:29:51;101502.41;;;7.51;100.00
47104;BME280;32853;52.164;5.400;2022-12-07T11:32:45;101621.91;;;8.19;100.00
47104;BME280;32853;52.164;5.400;2022-12-07T11:37:58;101612.16;;;8.32;100.00
47104;BME280;32853;52.164;5.400;2022-12-07T11:40:38;101474.50;;;7.61;100.00
47104;BME280;32853;52.164;5.400;2022-12-07T12:08:33;101544.75;;;8.60;100.00
47104;BME280;32853;52.164;5.400;2022-12-07T12:17:05;101434.50;;;8.11;100.00
47104;BME280;32853;52.164;5.400;2022-12-07T12:25:47;101567.06;;;8.73;100.00
47104;BME280;32853;52.164;5.400;2022-12-07T12:28:40;101560.53;;;8.94;100.00
47104;BME280;32853;52.164;5.400;2022-12-07T12:31:13;101555.25;;;8.98;100.00
47104;BME280;32853;52.164;5.400;2022-12-07T12:33:45;101549.78;;;9.08;100.00
47104;BME280;32853;52.164;5.400;2022-12-07T12:41:11;101545.28;;;9.16;100.00
47104;BME280;32853;52.164;5.400;2022-12-07T12:43:56;101534.50;;;8.92;100.00
47104;BME280;32853;52.164;5.400;2022-12-07T13:04:53;101522.63;;;8.36;100.00
47104;BME280;32853;52.164;5.400;2022-12-07T13:07:47;101525.50;;;8.21;100.00
47104;BME280;32853;52.164;5.400;2022-12-07T13:12:59;101528.19;;;8.16;100.00
47104;BME280;32853;52.164;5.400;2022-12-07T13:15:38;101520.63;;;8.02;100.00
47104;BME280;32853;52.164;5.400;2022-12-07T13:20:47;101513.09;;;8.33;100.00
47104;BME280;32853;52.164;5.400;2022-12-07T13:23:13;101505.28;;;8.33;100.00
47104;BME280;32853;52.164;5.400;2022-12-07T13:25:45;101504.44;;;8.34;100.00
47104;BME280;32853;52.164;5.400;2022-12-07T13:28:14;101502.72;;;8.30;100.00
47104;BME280;32853;52.164;5.400;2022-12-07T13:30:43;101497.91;;;8.09;100.00
47104;BME280;32853;52.164;5.400;2022-12-07T13:33:09;101493.22;;;8.28;100.00
47104;BME280;32853;52.164;5.400;2022-12-07T13:35:36;101489.84;;;8.23;100.00
47104;BME280;32853;52.164;5.400;2022-12-07T13:38:04;101485.34;;;8.31;100.00
47104;BME280;32853;52.164;5.400;2022-12-07T13:40:30;101481.81;;;8.33;100.00
47104;BME280;32853;52.164;5.400;2022-12-07T13:43:00;101485.44;;;8.26;100.00
47104;BME280;32853;52.164;5.400;2022-12-07T13:45:27;101486.22;;;8.30;100.00
47104;BME280;32853;52.164;5.400;2022-12-07T13:48:16;101481.81;;;8.33;100.00
47104;BME280;32853;52.164;5.400;2022-12-07T13:50:47;101476.66;;;8.32;100.00
47104;BME280;32853;52.164;5.400;2022-12-07T13:53:17;101482.06;;;8.20;100.00
47104;BME280;32853;52.164;5.400;2022-12-07T13:55:45;101474.19;;;8.24;100.00
47104;BME280;32853;52.164;5.400;2022-12-07T14:00:52;101476.66;;;8.30;100.00
47104;BME280;32853;52.164;5.400;2022-12-07T14:03:35;101465.38;;;8.30;100.00
47104;BME280;32853;52.164;5.400;2022-12-07T14:06:21;101465.56;;;8.22;100.00
47104;BME280;32853;52.164;5.400;2022-12-07T14:09:07;101464.63;;;8.25;100.00
47104;BME280;32853;52.164;5.400;2022-12-07T14:11:32;101464.56;;;8.28;100.00
47104;BME280;32853;52.164;5.400;2022-12-07T14:14:00;101471.50;;;8.27;100.00
47104;BME280;32853;52.164;5.400;2022-12-07T14:16:30;101460.88;;;8.39;100.00
47104;BME280;32853;52.164;5.400;2022-12-07T14:19:02;101453.81;;;8.44;100.00
47104;BME280;32853;52.164;5.400;2022-12-07T14:24:09;101446.88;;;8.45;100.00
47104;BME280;32853;52.164;5.400;2022-12-07T14:26:34;101448.63;;;8.44;100.00
47104;BME280;32853;52.164;5.400;2022-12-07T14:29:19;101433.75;;;8.48;100.00
47104;BME280;32853;52.164;5.400;2022-12-07T14:31:47;101439.81;;;8.49;100.00
47104;BME280;32853;52.164;5.400;2022-12-07T14:34:12;101438.03;;;8.51;100.00
47104;BME280;32853;52.164;5.400;2022-12-07T14:36:50;101439.00;;;8.47;100.00
47104;BME280;32853;52.164;5.400;2022-12-07T14:39:15;101442.72;;;8.35;100.00
47104;BME280;32853;52.164;5.400;2022-12-07T14:41:58;101433.88;;;8.42;100.00
47104;BME280;32853;52.164;5.400;2022-12-07T14:44:37;101429.47;;;8.46;100.00
47104;BME280;32853;52.164;5.400;2022-12-07T14:47:14;101429.50;;;8.44;100.00
47104;BME280;32853;52.164;5.400;2022-12-07T14:49:40;101426.91;;;8.44;100.00
47104;BME280;32853;52.164;5.400;2022-12-07T14:57:46;101435.25;;;8.16;100.00
47104;BME280;32853;52.164;5.400;2022-12-07T15:02:55;101441.44;;;8.12;100.00
47104;BME280;32853;52.164;5.400;2022-12-07T15:08:09;101456.34;;;8.04;100.00
47104;BME280;32853;52.164;5.400;2022-12-07T15:10:39;101454.00;;;7.91;100.00
47104;BME280;32853;52.164;5.400;2022-12-07T15:18:42;101422.72;;;7.92;100.00
47104;BME280;32853;52.164;5.400;2022-12-07T15:21:14;101414.13;;;7.89;100.00
47104;BME280;32853;52.164;5.400;2022-12-07T15:23:47;101426.38;;;7.82;100.00
47104;BME280;32853;52.164;5.400;2022-12-07T15:26:14;101430.78;;;7.80;100.00
47104;BME280;32853;52.164;5.400;2022-12-07T15:28:47;101423.84;;;7.79;100.00
47104;BME280;32853;52.164;5.400;2022-12-07T15:31:22;101426.38;;;7.82;100.00
47104;BME280;32853;52.164;5.400;2022-12-07T15:33:53;101423.88;;;7.76;100.00
47104;BME280;32853;52.164;5.400;2022-12-07T15:36:20;101423.94;;;7.73;100.00
47104;BME280;32853;52.164;5.400;2022-12-07T15:38:46;101418.78;;;7.71;100.00
47104;BME280;32853;52.164;5.400;2022-12-07T15:41:11;101412.75;;;7.69;100.00
47104;BME280;32853;52.164;5.400;2022-12-07T15:43:36;101410.97;;;7.71;100.00
47104;BME280;32853;52.164;5.400;2022-12-07T15:46:20;101411.81;;;7.72;100.00
47104;BME280;32853;52.164;5.400;2022-12-07T15:48:46;101403.16;;;7.71;100.00
47104;BME280;32853;52.164;5.400;2022-12-07T15:51:11;101401.47;;;7.69;100.00
47104;BME280;32853;52.164;5.400;2022-12-07T15:53:36;101389.31;;;7.69;100.00
47104;BME280;32853;52.164;5.400;2022-12-07T15:56:05;101399.75;;;7.68;100.00
47104;BME280;32853;52.164;5.400;2022-12-07T15:58:35;101392.00;;;7.65;100.00
47104;BME280;32853;52.164;5.400;2022-12-07T16:01:00;101394.59;;;7.66;100.00
47104;BME280;32853;52.164;5.400;2022-12-07T16:03:26;101386.72;;;7.69;100.00